sensor_id;sensor_type;location;lat;lon;timestamp;P1;durP1;ratioP1;P2;durP2;ratioP2
28796;SDS011;24974;54.444;18.560;2023-04-29T00:00:44;14.68;;;9.77;;
28796;SDS011;24974;54.444;18.560;2023-04-29T00:03:16;16.85;;;8.98;;
28796;SDS011;24974;54.444;18.560;2023-04-29T00:05:48;16.40;;;9.32;;
28796;SDS011;24974;54.444;18.560;2023-04-29T00:08:19;17.50;;;8.85;;
28796;SDS011;24974;54.444;18.560;2023-04-29T00:10:50;20.00;;;8.82;;
28796;SDS011;24974;54.444;18.560;2023-04-29T00:13:21;15.27;;;8.38;;
28796;SDS011;24974;54.444;18.560;2023-04-29T00:15:52;14.88;;;8.25;;
28796;SDS011;24974;54.444;18.560;2023-04-29T00:18:23;14.85;;;8.68;;
28796;SDS011;24974;54.444;18.560;2023-04-29T00:20:53;14.55;;;8.15;;
28796;SDS011;24974;54.444;18.560;2023-04-29T00:23:24;16.40;;;8.73;;
28796;SDS011;24974;54.444;18.560;2023-04-29T00:25:55;13.55;;;8.25;;
28796;SDS011;24974;54.444;18.560;2023-04-29T00:28:26;14.13;;;8.68;;
28796;SDS011;24974;54.444;18.560;2023-04-29T00:30:57;14.15;;;8.82;;
28796;SDS011;24974;54.444;18.560;2023-04-29T00:33:28;14.73;;;8.55;;
28796;SDS011;24974;54.444;18.560;2023-04-29T00:35:59;15.60;;;8.00;;
28796;SDS011;24974;54.444;18.560;2023-04-29T00:38:31;12.13;;;8.13;;
28796;SDS011;24974;54.444;18.560;2023-04-29T00:41:02;15.35;;;8.68;;
28796;SDS011;24974;54.444;18.560;2023-04-29T04:07:54;11.05;;;8.00;;
28796;SDS011;24974;54.444;18.560;2023-04-29T04:10:40;12.18;;;7.55;;
28796;SDS011;24974;54.444;18.560;2023-04-29T04:13:29;11.48;;;7.40;;
28796;SDS011;24974;54.444;18.560;2023-04-29T04:16:00;11.43;;;7.88;;
28796;SDS011;24974;54.444;18.560;2023-04-29T04:18:31;14.98;;;7.93;;
28796;SDS011;24974;54.444;18.560;2023-04-29T04:21:06;13.30;;;7.53;;
28796;SDS011;24974;54.444;18.560;2023-04-29T04:23:42;12.55;;;7.60;;
28796;SDS011;24974;54.444;18.560;2023-04-29T04:26:16;11.73;;;7.88;;
28796;SDS011;24974;54.444;18.560;2023-04-29T04:29:01;11.43;;;7.63;;
28796;SDS011;24974;54.444;18.560;2023-04-29T04:31:38;15.35;;;8.07;;
28796;SDS011;24974;54.444;18.560;2023-04-29T04:34:10;11.43;;;8.40;;
28796;SDS011;24974;54.444;18.560;2023-04-29T04:36:41;11.55;;;8.60;;
28796;SDS011;24974;54.444;18.560;2023-04-29T04:39:12;12.85;;;8.60;;
28796;SDS011;24974;54.444;18.560;2023-04-29T04:41:43;12.93;;;8.45;;
28796;SDS011;24974;54.444;18.560;2023-04-29T04:44:13;10.35;;;7.57;;
28796;SDS011;24974;54.444;18.560;2023-04-29T04:47:04;12.52;;;8.25;;
28796;SDS011;24974;54.444;18.560;2023-04-29T04:49:49;12.02;;;8.27;;
28796;SDS011;24974;54.444;18.560;2023-04-29T04:52:22;16.67;;;9.55;;
28796;SDS011;24974;54.444;18.560;2023-04-29T04:55:04;14.00;;;9.20;;
28796;SDS011;24974;54.444;18.560;2023-04-29T04:57:38;15.02;;;9.15;;
28796;SDS011;24974;54.444;18.560;2023-04-29T05:00:10;17.27;;;11.02;;
28796;SDS011;24974;54.444;18.560;2023-04-29T05:02:41;14.50;;;9.60;;
28796;SDS011;24974;54.444;18.560;2023-04-29T05:05:12;12.15;;;8.65;;
28796;SDS011;24974;54.444;18.560;2023-04-29T05:07:45;17.83;;;8.85;;
28796;SDS011;24974;54.444;18.560;2023-04-29T05:10:16;20.17;;;10.23;;
28796;SDS011;24974;54.444;18.560;2023-04-29T05:12:54;17.42;;;10.23;;
28796;SDS011;24974;54.444;18.560;2023-04-29T05:15:25;15.85;;;10.02;;
28796;SDS011;24974;54.444;18.560;2023-04-29T05:17:59;20.27;;;10.38;;
28796;SDS011;24974;54.444;18.560;2023-04-29T05:20:30;17.25;;;10.20;;
28796;SDS011;24974;54.444;18.560;2023-04-29T05:23:03;15.13;;;9.98;;
28796;SDS011;24974;54.444;18.560;2023-04-29T05:25:39;17.35;;;10.65;;
28796;SDS011;24974;54.444;18.560;2023-04-29T05:28:10;16.95;;;10.77;;
28796;SDS011;24974;54.444;18.560;2023-04-29T05:30:44;15.88;;;9.98;;
28796;SDS011;24974;54.444;18.560;2023-04-29T05:33:16;17.55;;;10.57;;
28796;SDS011;24974;54.444;18.560;2023-04-29T05:35:47;15.60;;;10.57;;
28796;SDS011;24974;54.444;18.560;2023-04-29T05:38:18;17.83;;;10.30;;
28796;SDS011;24974;54.444;18.560;2023-04-29T05:41:06;16.02;;;10.57;;
28796;SDS011;24974;54.444;18.560;2023-04-29T05:43:56;17.13;;;10.15;;
28796;SDS011;24974;54.444;18.560;2023-04-29T05:46:27;17.67;;;9.88;;
28796;SDS011;24974;54.444;18.560;2023-04-29T05:48:59;16.58;;;9.88;;
28796;SDS011;24974;54.444;18.560;2023-04-29T05:51:30;15.82;;;9.60;;
28796;SDS011;24974;54.444;18.560;2023-04-29T05:54:02;14.68;;;10.80;;
28796;SDS011;24974;54.444;18.560;2023-04-29T05:56:34;21.23;;;10.05;;
28796;SDS011;24974;54.444;18.560;2023-04-29T05:59:05;17.05;;;10.80;;
28796;SDS011;24974;54.444;18.560;2023-04-29T06:01:35;18.17;;;10.85;;
28796;SDS011;24974;54.444;18.560;2023-04-29T06:04:06;19.77;;;10.55;;
28796;SDS011;24974;54.444;18.560;2023-04-29T06:06:56;22.10;;;10.77;;
28796;SDS011;24974;54.444;18.560;2023-04-29T06:09:47;17.02;;;10.00;;
28796;SDS011;24974;54.444;18.560;2023-04-29T06:12:18;16.08;;;9.95;;
28796;SDS011;24974;54.444;18.560;2023-04-29T06:14:50;18.67;;;10.80;;
28796;SDS011;24974;54.444;18.560;2023-04-29T06:17:21;18.10;;;9.80;;
28796;SDS011;24974;54.444;18.560;2023-04-29T06:19:52;19.10;;;10.60;;
28796;SDS011;24974;54.444;18.560;2023-04-29T06:22:23;23.05;;;10.82;;
28796;SDS011;24974;54.444;18.560;2023-04-29T06:24:57;17.48;;;10.40;;
28796;SDS011;24974;54.444;18.560;2023-04-29T06:27:51;20.00;;;11.10;;
28796;SDS011;24974;54.444;18.560;2023-04-29T06:30:25;17.67;;;12.38;;
28796;SDS011;24974;54.444;18.560;2023-04-29T06:32:56;23.65;;;12.43;;
28796;SDS011;24974;54.444;18.560;2023-04-29T06:35:27;25.92;;;12.05;;
28796;SDS011;24974;54.444;18.560;2023-04-29T06:38:12;22.45;;;13.15;;
28796;SDS011;24974;54.444;18.560;2023-04-29T06:40:43;26.77;;;12.73;;
28796;SDS011;24974;54.444;18.560;2023-04-29T06:43:34;21.60;;;13.20;;
28796;SDS011;24974;54.444;18.560;2023-04-29T06:46:19;26.75;;;13.85;;
28796;SDS011;24974;54.444;18.560;2023-04-29T06:49:04;30.52;;;15.27;;
28796;SDS011;24974;54.444;18.560;2023-04-29T06:51:36;26.52;;;15.88;;
28796;SDS011;24974;54.444;18.560;2023-04-29T06:54:07;27.77;;;14.63;;
28796;SDS011;24974;54.444;18.560;2023-04-29T06:56:38;26.65;;;15.68;;
28796;SDS011;24974;54.444;18.560;2023-04-29T06:59:09;25.05;;;14.48;;
28796;SDS011;24974;54.444;18.560;2023-04-29T07:01:41;22.98;;;12.77;;
28796;SDS011;24974;54.444;18.560;2023-04-29T07:04:12;24.13;;;13.68;;
28796;SDS011;24974;54.444;18.560;2023-04-29T07:06:43;21.48;;;11.98;;
28796;SDS011;24974;54.444;18.560;2023-04-29T07:09:16;22.30;;;12.50;;
28796;SDS011;24974;54.444;18.560;2023-04-29T07:11:47;18.38;;;13.05;;
28796;SDS011;24974;54.444;18.560;2023-04-29T07:14:18;17.42;;;11.75;;
28796;SDS011;24974;54.444;18.560;2023-04-29T07:16:52;17.70;;;11.95;;
28796;SDS011;24974;54.444;18.560;2023-04-29T07:19:24;17.58;;;12.43;;
28796;SDS011;24974;54.444;18.560;2023-04-29T07:21:55;23.23;;;13.75;;
28796;SDS011;24974;54.444;18.560;2023-04-29T07:24:26;24.27;;;13.90;;
28796;SDS011;24974;54.444;18.560;2023-04-29T07:26:57;27.40;;;13.95;;
28796;SDS011;24974;54.444;18.560;2023-04-29T07:29:28;23.60;;;13.98;;
28796;SDS011;24974;54.444;18.560;2023-04-29T07:31:58;22.15;;;14.93;;
28796;SDS011;24974;54.444;18.560;2023-04-29T07:34:30;24.55;;;14.07;;
28796;SDS011;24974;54.444;18.560;2023-04-29T07:37:01;65.78;;;15.88;;
28796;SDS011;24974;54.444;18.560;2023-04-29T07:39:32;21.55;;;13.85;;
28796;SDS011;24974;54.444;18.560;2023-04-29T07:42:06;23.33;;;16.35;;
28796;SDS011;24974;54.444;18.560;2023-04-29T07:44:37;24.95;;;15.65;;
28796;SDS011;24974;54.444;18.560;2023-04-29T07:47:08;25.95;;;15.07;;
28796;SDS011;24974;54.444;18.560;2023-04-29T07:49:39;21.67;;;15.20;;
28796;SDS011;24974;54.444;18.560;2023-04-29T07:52:11;24.98;;;16.67;;
28796;SDS011;24974;54.444;18.560;2023-04-29T07:54:42;24.02;;;16.20;;
28796;SDS011;24974;54.444;18.560;2023-04-29T07:57:12;20.00;;;13.95;;
28796;SDS011;24974;54.444;18.560;2023-04-29T07:59:43;18.60;;;14.45;;
28796;SDS011;24974;54.444;18.560;2023-04-29T08:02:14;25.42;;;12.90;;
28796;SDS011;24974;54.444;18.560;2023-04-29T08:04:45;19.77;;;13.93;;
28796;SDS011;24974;54.444;18.560;2023-04-29T08:07:17;23.83;;;14.55;;
28796;SDS011;24974;54.444;18.560;2023-04-29T08:09:48;27.58;;;14.02;;
28796;SDS011;24974;54.444;18.560;2023-04-29T08:12:19;19.95;;;13.73;;
28796;SDS011;24974;54.444;18.560;2023-04-29T08:14:49;23.08;;;14.55;;
28796;SDS011;24974;54.444;18.560;2023-04-29T08:17:20;20.38;;;13.73;;
28796;SDS011;24974;54.444;18.560;2023-04-29T08:19:51;17.40;;;14.10;;
28796;SDS011;24974;54.444;18.560;2023-04-29T08:22:22;18.67;;;13.68;;
28796;SDS011;24974;54.444;18.560;2023-04-29T08:24:53;18.80;;;14.10;;
28796;SDS011;24974;54.444;18.560;2023-04-29T08:27:24;18.13;;;13.90;;
28796;SDS011;24974;54.444;18.560;2023-04-29T08:29:55;23.17;;;14.25;;
28796;SDS011;24974;54.444;18.560;2023-04-29T08:32:26;21.00;;;13.63;;
28796;SDS011;24974;54.444;18.560;2023-04-29T08:34:57;24.67;;;14.57;;
28796;SDS011;24974;54.444;18.560;2023-04-29T08:37:27;20.02;;;14.30;;
28796;SDS011;24974;54.444;18.560;2023-04-29T08:39:58;18.02;;;14.43;;
28796;SDS011;24974;54.444;18.560;2023-04-29T08:42:33;23.75;;;15.10;;
28796;SDS011;24974;54.444;18.560;2023-04-29T08:45:05;19.67;;;14.63;;
28796;SDS011;24974;54.444;18.560;2023-04-29T08:47:36;25.92;;;15.05;;
28796;SDS011;24974;54.444;18.560;2023-04-29T08:50:08;22.95;;;14.93;;
28796;SDS011;24974;54.444;18.560;2023-04-29T08:52:39;20.58;;;15.25;;
28796;SDS011;24974;54.444;18.560;2023-04-29T08:55:10;24.65;;;14.90;;
28796;SDS011;24974;54.444;18.560;2023-04-29T08:57:41;22.48;;;16.35;;
28796;SDS011;24974;54.444;18.560;2023-04-29T09:00:13;19.83;;;16.38;;
28796;SDS011;24974;54.444;18.560;2023-04-29T09:02:49;22.25;;;15.65;;
28796;SDS011;24974;54.444;18.560;2023-04-29T09:05:23;25.00;;;17.23;;
28796;SDS011;24974;54.444;18.560;2023-04-29T09:07:56;27.55;;;16.40;;
28796;SDS011;24974;54.444;18.560;2023-04-29T09:10:29;28.83;;;16.73;;
28796;SDS011;24974;54.444;18.560;2023-04-29T09:13:00;30.42;;;17.27;;
28796;SDS011;24974;54.444;18.560;2023-04-29T09:15:36;33.20;;;18.00;;
28796;SDS011;24974;54.444;18.560;2023-04-29T09:18:10;25.00;;;17.92;;
28796;SDS011;24974;54.444;18.560;2023-04-29T09:20:41;25.02;;;16.95;;
28796;SDS011;24974;54.444;18.560;2023-04-29T09:23:12;27.30;;;18.02;;
28796;SDS011;24974;54.444;18.560;2023-04-29T09:25:53;28.50;;;17.60;;
28796;SDS011;24974;54.444;18.560;2023-04-29T09:28:27;22.33;;;17.27;;
28796;SDS011;24974;54.444;18.560;2023-04-29T09:30:58;22.33;;;16.98;;
28796;SDS011;24974;54.444;18.560;2023-04-29T09:33:54;23.45;;;17.05;;
28796;SDS011;24974;54.444;18.560;2023-04-29T09:39:09;25.58;;;17.42;;
28796;SDS011;24974;54.444;18.560;2023-04-29T09:41:55;22.50;;;17.88;;
28796;SDS011;24974;54.444;18.560;2023-04-29T09:44:35;23.58;;;17.70;;
28796;SDS011;24974;54.444;18.560;2023-04-29T09:47:07;22.85;;;18.23;;
28796;SDS011;24974;54.444;18.560;2023-04-29T09:49:41;25.10;;;18.65;;
28796;SDS011;24974;54.444;18.560;2023-04-29T09:52:14;27.75;;;19.10;;
28796;SDS011;24974;54.444;18.560;2023-04-29T09:54:46;24.73;;;18.15;;
28796;SDS011;24974;54.444;18.560;2023-04-29T09:57:17;25.52;;;18.10;;
28796;SDS011;24974;54.444;18.560;2023-04-29T09:59:48;22.55;;;17.60;;
28796;SDS011;24974;54.444;18.560;2023-04-29T10:02:19;22.95;;;18.67;;
28796;SDS011;24974;54.444;18.560;2023-04-29T10:04:52;26.92;;;18.08;;
28796;SDS011;24974;54.444;18.560;2023-04-29T10:07:26;23.10;;;19.23;;
28796;SDS011;24974;54.444;18.560;2023-04-29T10:09:57;27.83;;;18.73;;
28796;SDS011;24974;54.444;18.560;2023-04-29T10:12:28;24.35;;;19.00;;
28796;SDS011;24974;54.444;18.560;2023-04-29T10:15:04;23.90;;;18.45;;
28796;SDS011;24974;54.444;18.560;2023-04-29T10:34:33;24.08;;;17.60;;
28796;SDS011;24974;54.444;18.560;2023-04-29T10:37:09;24.88;;;17.77;;
28796;SDS011;24974;54.444;18.560;2023-04-29T10:39:42;26.40;;;17.52;;
28796;SDS011;24974;54.444;18.560;2023-04-29T10:50:32;19.67;;;14.88;;
28796;SDS011;24974;54.444;18.560;2023-04-29T10:53:04;22.17;;;15.43;;
28796;SDS011;24974;54.444;18.560;2023-04-29T10:55:39;23.80;;;15.75;;
28796;SDS011;24974;54.444;18.560;2023-04-29T11:01:05;24.33;;;16.10;;
28796;SDS011;24974;54.444;18.560;2023-04-29T11:09:11;20.65;;;15.68;;
28796;SDS011;24974;54.444;18.560;2023-04-29T11:11:44;21.08;;;14.35;;
28796;SDS011;24974;54.444;18.560;2023-04-29T11:14:22;20.05;;;13.70;;
28796;SDS011;24974;54.444;18.560;2023-04-29T11:16:56;21.33;;;14.77;;
28796;SDS011;24974;54.444;18.560;2023-04-29T11:19:30;18.10;;;13.73;;
28796;SDS011;24974;54.444;18.560;2023-04-29T11:22:12;18.70;;;13.57;;
28796;SDS011;24974;54.444;18.560;2023-04-29T11:24:59;15.43;;;12.85;;
28796;SDS011;24974;54.444;18.560;2023-04-29T11:27:39;17.58;;;13.30;;
28796;SDS011;24974;54.444;18.560;2023-04-29T11:30:11;18.30;;;13.50;;
28796;SDS011;24974;54.444;18.560;2023-04-29T11:32:43;18.27;;;13.40;;
28796;SDS011;24974;54.444;18.560;2023-04-29T11:35:16;17.38;;;13.60;;
28796;SDS011;24974;54.444;18.560;2023-04-29T11:37:49;17.77;;;13.45;;
28796;SDS011;24974;54.444;18.560;2023-04-29T11:40:19;20.48;;;13.02;;
28796;SDS011;24974;54.444;18.560;2023-04-29T11:42:50;17.67;;;11.75;;
28796;SDS011;24974;54.444;18.560;2023-04-29T11:45:21;18.08;;;12.32;;
28796;SDS011;24974;54.444;18.560;2023-04-29T11:47:52;15.48;;;13.15;;
28796;SDS011;24974;54.444;18.560;2023-04-29T11:50:23;21.45;;;12.95;;
28796;SDS011;24974;54.444;18.560;2023-04-29T11:52:54;17.40;;;12.95;;
28796;SDS011;24974;54.444;18.560;2023-04-29T11:55:27;18.13;;;11.90;;
28796;SDS011;24974;54.444;18.560;2023-04-29T11:57:59;17.52;;;12.48;;
28796;SDS011;24974;54.444;18.560;2023-04-29T12:00:30;15.50;;;11.38;;
28796;SDS011;24974;54.444;18.560;2023-04-29T12:03:00;18.88;;;12.25;;
28796;SDS011;24974;54.444;18.560;2023-04-29T12:05:36;14.65;;;12.00;;
28796;SDS011;24974;54.444;18.560;2023-04-29T12:08:07;14.35;;;11.80;;
28796;SDS011;24974;54.444;18.560;2023-04-29T12:10:37;17.10;;;11.68;;
28796;SDS011;24974;54.444;18.560;2023-04-29T12:13:08;15.68;;;11.48;;
28796;SDS011;24974;54.444;18.560;2023-04-29T12:15:40;13.27;;;10.38;;
28796;SDS011;24974;54.444;18.560;2023-04-29T12:18:11;15.32;;;10.57;;
28796;SDS011;24974;54.444;18.560;2023-04-29T12:20:43;10.23;;;8.15;;
28796;SDS011;24974;54.444;18.560;2023-04-29T12:23:15;9.95;;;8.43;;
28796;SDS011;24974;54.444;18.560;2023-04-29T12:25:51;14.23;;;7.85;;
28796;SDS011;24974;54.444;18.560;2023-04-29T12:28:26;12.95;;;8.20;;
28796;SDS011;24974;54.444;18.560;2023-04-29T12:30:57;12.20;;;7.85;;
28796;SDS011;24974;54.444;18.560;2023-04-29T12:33:28;13.77;;;8.30;;
28796;SDS011;24974;54.444;18.560;2023-04-29T12:36:00;8.88;;;6.60;;
28796;SDS011;24974;54.444;18.560;2023-04-29T12:38:31;13.45;;;8.15;;
28796;SDS011;24974;54.444;18.560;2023-04-29T12:41:03;11.68;;;7.97;;
28796;SDS011;24974;54.444;18.560;2023-04-29T12:43:37;11.48;;;7.30;;
28796;SDS011;24974;54.444;18.560;2023-04-29T12:46:08;12.05;;;7.15;;
28796;SDS011;24974;54.444;18.560;2023-04-29T12:48:40;13.73;;;7.78;;
28796;SDS011;24974;54.444;18.560;2023-04-29T12:51:12;13.32;;;8.10;;
28796;SDS011;24974;54.444;18.560;2023-04-29T12:53:43;12.50;;;7.72;;
28796;SDS011;24974;54.444;18.560;2023-04-29T12:56:14;12.75;;;7.68;;
28796;SDS011;24974;54.444;18.560;2023-04-29T12:58:47;14.07;;;8.68;;
28796;SDS011;24974;54.444;18.560;2023-04-29T13:01:18;14.00;;;9.27;;
28796;SDS011;24974;54.444;18.560;2023-04-29T13:03:48;12.88;;;8.43;;
28796;SDS011;24974;54.444;18.560;2023-04-29T13:06:20;12.93;;;7.68;;
28796;SDS011;24974;54.444;18.560;2023-04-29T13:08:51;14.63;;;8.07;;
28796;SDS011;24974;54.444;18.560;2023-04-29T13:11:22;14.18;;;8.75;;
28796;SDS011;24974;54.444;18.560;2023-04-29T13:13:53;11.25;;;8.20;;
28796;SDS011;24974;54.444;18.560;2023-04-29T13:16:24;11.75;;;8.55;;
28796;SDS011;24974;54.444;18.560;2023-04-29T13:18:55;14.15;;;9.32;;
28796;SDS011;24974;54.444;18.560;2023-04-29T13:21:26;14.30;;;9.45;;
28796;SDS011;24974;54.444;18.560;2023-04-29T13:23:57;14.13;;;9.35;;
28796;SDS011;24974;54.444;18.560;2023-04-29T13:26:28;18.15;;;8.70;;
28796;SDS011;24974;54.444;18.560;2023-04-29T13:28:59;12.63;;;8.00;;
28796;SDS011;24974;54.444;18.560;2023-04-29T13:31:30;13.05;;;8.63;;
28796;SDS011;24974;54.444;18.560;2023-04-29T13:34:01;12.73;;;8.43;;
28796;SDS011;24974;54.444;18.560;2023-04-29T13:36:32;12.02;;;8.02;;
28796;SDS011;24974;54.444;18.560;2023-04-29T13:39:02;12.88;;;8.95;;
28796;SDS011;24974;54.444;18.560;2023-04-29T13:41:34;14.88;;;9.25;;
28796;SDS011;24974;54.444;18.560;2023-04-29T13:44:04;11.88;;;7.93;;
28796;SDS011;24974;54.444;18.560;2023-04-29T13:46:35;12.15;;;8.93;;
28796;SDS011;24974;54.444;18.560;2023-04-29T13:49:06;14.95;;;9.23;;
28796;SDS011;24974;54.444;18.560;2023-04-29T13:51:37;10.45;;;8.50;;
28796;SDS011;24974;54.444;18.560;2023-04-29T13:54:08;17.02;;;8.63;;
28796;SDS011;24974;54.444;18.560;2023-04-29T13:56:39;21.00;;;11.68;;
28796;SDS011;24974;54.444;18.560;2023-04-29T13:59:09;26.50;;;13.32;;
28796;SDS011;24974;54.444;18.560;2023-04-29T14:01:41;19.23;;;11.30;;
28796;SDS011;24974;54.444;18.560;2023-04-29T14:04:12;18.30;;;9.98;;
28796;SDS011;24974;54.444;18.560;2023-04-29T14:06:42;15.23;;;9.57;;
28796;SDS011;24974;54.444;18.560;2023-04-29T14:09:13;16.45;;;10.52;;
28796;SDS011;24974;54.444;18.560;2023-04-29T14:11:44;14.48;;;10.00;;
28796;SDS011;24974;54.444;18.560;2023-04-29T14:14:15;13.15;;;9.82;;
28796;SDS011;24974;54.444;18.560;2023-04-29T14:16:46;14.48;;;9.82;;
28796;SDS011;24974;54.444;18.560;2023-04-29T14:19:18;17.27;;;10.07;;
28796;SDS011;24974;54.444;18.560;2023-04-29T14:21:48;16.05;;;9.88;;
28796;SDS011;24974;54.444;18.560;2023-04-29T14:24:19;12.90;;;9.68;;
28796;SDS011;24974;54.444;18.560;2023-04-29T14:26:51;16.02;;;9.80;;
28796;SDS011;24974;54.444;18.560;2023-04-29T14:29:22;14.15;;;10.18;;
28796;SDS011;24974;54.444;18.560;2023-04-29T14:31:53;17.00;;;10.77;;
28796;SDS011;24974;54.444;18.560;2023-04-29T14:34:24;15.00;;;10.60;;
28796;SDS011;24974;54.444;18.560;2023-04-29T14:36:54;18.63;;;10.50;;
28796;SDS011;24974;54.444;18.560;2023-04-29T14:39:28;15.10;;;9.75;;
28796;SDS011;24974;54.444;18.560;2023-04-29T14:41:59;19.30;;;10.52;;
28796;SDS011;24974;54.444;18.560;2023-04-29T14:44:31;14.73;;;9.85;;
28796;SDS011;24974;54.444;18.560;2023-04-29T14:47:01;15.38;;;10.05;;
28796;SDS011;24974;54.444;18.560;2023-04-29T14:49:33;15.82;;;10.52;;
28796;SDS011;24974;54.444;18.560;2023-04-29T14:52:03;20.02;;;10.75;;
28796;SDS011;24974;54.444;18.560;2023-04-29T14:54:34;14.20;;;10.45;;
28796;SDS011;24974;54.444;18.560;2023-04-29T14:57:05;16.40;;;10.23;;
28796;SDS011;24974;54.444;18.560;2023-04-29T14:59:36;14.45;;;10.68;;
28796;SDS011;24974;54.444;18.560;2023-04-29T15:02:07;15.77;;;11.02;;
28796;SDS011;24974;54.444;18.560;2023-04-29T15:04:38;14.10;;;10.57;;
28796;SDS011;24974;54.444;18.560;2023-04-29T15:07:13;14.50;;;11.13;;
28796;SDS011;24974;54.444;18.560;2023-04-29T15:09:45;16.27;;;10.13;;
28796;SDS011;24974;54.444;18.560;2023-04-29T15:12:16;15.52;;;10.65;;
28796;SDS011;24974;54.444;18.560;2023-04-29T15:14:49;15.90;;;10.95;;
28796;SDS011;24974;54.444;18.560;2023-04-29T15:17:21;18.25;;;10.75;;
28796;SDS011;24974;54.444;18.560;2023-04-29T15:19:52;12.75;;;10.63;;
28796;SDS011;24974;54.444;18.560;2023-04-29T15:22:23;17.88;;;11.38;;
28796;SDS011;24974;54.444;18.560;2023-04-29T15:24:54;16.95;;;10.93;;
28796;SDS011;24974;54.444;18.560;2023-04-29T15:27:25;17.30;;;11.45;;
28796;SDS011;24974;54.444;18.560;2023-04-29T15:29:55;17.85;;;10.35;;
28796;SDS011;24974;54.444;18.560;2023-04-29T15:32:27;13.68;;;11.15;;
28796;SDS011;24974;54.444;18.560;2023-04-29T15:35:02;15.75;;;10.98;;
28796;SDS011;24974;54.444;18.560;2023-04-29T15:37:34;17.95;;;11.38;;
28796;SDS011;24974;54.444;18.560;2023-04-29T15:40:05;16.65;;;11.50;;
28796;SDS011;24974;54.444;18.560;2023-04-29T15:42:37;20.15;;;12.02;;
28796;SDS011;24974;54.444;18.560;2023-04-29T15:45:08;13.50;;;10.25;;
28796;SDS011;24974;54.444;18.560;2023-04-29T15:47:40;15.38;;;10.57;;
28796;SDS011;24974;54.444;18.560;2023-04-29T15:50:10;12.95;;;10.73;;
28796;SDS011;24974;54.444;18.560;2023-04-29T15:52:41;18.27;;;11.15;;
28796;SDS011;24974;54.444;18.560;2023-04-29T15:55:12;19.05;;;10.20;;
28796;SDS011;24974;54.444;18.560;2023-04-29T15:57:43;15.98;;;11.43;;
28796;SDS011;24974;54.444;18.560;2023-04-29T16:00:14;15.05;;;10.32;;
28796;SDS011;24974;54.444;18.560;2023-04-29T16:02:45;15.20;;;10.63;;
28796;SDS011;24974;54.444;18.560;2023-04-29T16:05:16;22.52;;;11.10;;
28796;SDS011;24974;54.444;18.560;2023-04-29T16:07:47;16.67;;;10.85;;
28796;SDS011;24974;54.444;18.560;2023-04-29T16:10:17;15.30;;;10.68;;
28796;SDS011;24974;54.444;18.560;2023-04-29T16:12:49;19.02;;;10.60;;
28796;SDS011;24974;54.444;18.560;2023-04-29T16:15:19;15.20;;;10.05;;
28796;SDS011;24974;54.444;18.560;2023-04-29T16:17:50;20.70;;;10.77;;
28796;SDS011;24974;54.444;18.560;2023-04-29T16:20:21;16.10;;;10.45;;
28796;SDS011;24974;54.444;18.560;2023-04-29T16:22:52;18.13;;;11.20;;
28796;SDS011;24974;54.444;18.560;2023-04-29T16:25:23;13.85;;;10.52;;
28796;SDS011;24974;54.444;18.560;2023-04-29T16:27:54;13.32;;;10.35;;
28796;SDS011;24974;54.444;18.560;2023-04-29T16:30:25;15.50;;;10.35;;
28796;SDS011;24974;54.444;18.560;2023-04-29T16:32:56;22.13;;;11.20;;
28796;SDS011;24974;54.444;18.560;2023-04-29T16:35:27;16.65;;;10.07;;
28796;SDS011;24974;54.444;18.560;2023-04-29T16:38:00;12.55;;;10.00;;
28796;SDS011;24974;54.444;18.560;2023-04-29T16:40:30;19.60;;;10.77;;
28796;SDS011;24974;54.444;18.560;2023-04-29T16:43:01;14.10;;;10.02;;
28796;SDS011;24974;54.444;18.560;2023-04-29T16:45:32;13.95;;;10.30;;
28796;SDS011;24974;54.444;18.560;2023-04-29T16:48:03;13.07;;;10.32;;
28796;SDS011;24974;54.444;18.560;2023-04-29T16:50:34;20.38;;;10.43;;
28796;SDS011;24974;54.444;18.560;2023-04-29T16:53:06;15.10;;;10.25;;
28796;SDS011;24974;54.444;18.560;2023-04-29T16:55:37;21.10;;;10.75;;
28796;SDS011;24974;54.444;18.560;2023-04-29T16:58:08;15.65;;;10.88;;
28796;SDS011;24974;54.444;18.560;2023-04-29T17:00:39;17.38;;;10.73;;
28796;SDS011;24974;54.444;18.560;2023-04-29T17:03:10;14.88;;;11.68;;
28796;SDS011;24974;54.444;18.560;2023-04-29T17:05:41;14.32;;;10.88;;
28796;SDS011;24974;54.444;18.560;2023-04-29T17:08:11;15.30;;;10.90;;
28796;SDS011;24974;54.444;18.560;2023-04-29T17:10:44;16.27;;;11.13;;
28796;SDS011;24974;54.444;18.560;2023-04-29T17:13:14;16.95;;;11.75;;
28796;SDS011;24974;54.444;18.560;2023-04-29T17:15:45;19.75;;;12.60;;
28796;SDS011;24974;54.444;18.560;2023-04-29T17:18:16;18.25;;;12.27;;
28796;SDS011;24974;54.444;18.560;2023-04-29T17:20:49;16.30;;;12.73;;
28796;SDS011;24974;54.444;18.560;2023-04-29T17:23:20;17.77;;;13.10;;
28796;SDS011;24974;54.444;18.560;2023-04-29T17:25:51;18.65;;;13.75;;
28796;SDS011;24974;54.444;18.560;2023-04-29T17:28:23;16.38;;;13.98;;
28796;SDS011;24974;54.444;18.560;2023-04-29T17:30:54;17.83;;;13.85;;
28796;SDS011;24974;54.444;18.560;2023-04-29T17:33:29;22.35;;;14.35;;
28796;SDS011;24974;54.444;18.560;2023-04-29T17:36:07;19.70;;;14.57;;
28796;SDS011;24974;54.444;18.560;2023-04-29T17:38:38;20.38;;;14.00;;
28796;SDS011;24974;54.444;18.560;2023-04-29T17:41:09;18.80;;;13.63;;
28796;SDS011;24974;54.444;18.560;2023-04-29T17:43:40;18.20;;;13.43;;
28796;SDS011;24974;54.444;18.560;2023-04-29T17:46:10;22.83;;;13.43;;
28796;SDS011;24974;54.444;18.560;2023-04-29T17:48:41;19.80;;;13.90;;
28796;SDS011;24974;54.444;18.560;2023-04-29T17:51:12;21.92;;;12.75;;
28796;SDS011;24974;54.444;18.560;2023-04-29T17:53:43;18.73;;;13.52;;
28796;SDS011;24974;54.444;18.560;2023-04-29T17:56:14;17.10;;;12.70;;
28796;SDS011;24974;54.444;18.560;2023-04-29T17:58:44;20.25;;;12.93;;
28796;SDS011;24974;54.444;18.560;2023-04-29T18:01:15;21.75;;;13.32;;
28796;SDS011;24974;54.444;18.560;2023-04-29T18:03:46;20.27;;;13.25;;
28796;SDS011;24974;54.444;18.560;2023-04-29T18:06:16;17.65;;;12.93;;
28796;SDS011;24974;54.444;18.560;2023-04-29T18:08:48;23.23;;;13.00;;
28796;SDS011;24974;54.444;18.560;2023-04-29T18:11:18;19.02;;;13.68;;
28796;SDS011;24974;54.444;18.560;2023-04-29T18:13:51;17.52;;;12.93;;
28796;SDS011;24974;54.444;18.560;2023-04-29T18:16:23;16.95;;;12.73;;
28796;SDS011;24974;54.444;18.560;2023-04-29T18:18:54;18.50;;;13.15;;
28796;SDS011;24974;54.444;18.560;2023-04-29T18:21:25;16.50;;;11.80;;
28796;SDS011;24974;54.444;18.560;2023-04-29T18:23:57;15.77;;;12.75;;
28796;SDS011;24974;54.444;18.560;2023-04-29T18:26:28;19.90;;;12.80;;
28796;SDS011;24974;54.444;18.560;2023-04-29T18:28:58;16.98;;;11.48;;
28796;SDS011;24974;54.444;18.560;2023-04-29T18:31:29;13.73;;;11.30;;
28796;SDS011;24974;54.444;18.560;2023-04-29T18:34:00;14.95;;;11.82;;
28796;SDS011;24974;54.444;18.560;2023-04-29T18:36:31;17.60;;;12.45;;
28796;SDS011;24974;54.444;18.560;2023-04-29T18:39:02;20.42;;;13.90;;
28796;SDS011;24974;54.444;18.560;2023-04-29T18:41:33;20.95;;;14.15;;
28796;SDS011;24974;54.444;18.560;2023-04-29T18:44:04;25.15;;;12.98;;